sensor_id;sensor_type;location;lat;lon;timestamp;temperature;humidity
64670;DHT22;51080;51.690;5.174;2023-03-20T00:02:30;9.40;77.20
64670;DHT22;51080;51.690;5.174;2023-03-20T00:08:45;9.30;78.10
64670;DHT22;51080;51.690;5.174;2023-03-20T00:15:02;9.30;77.00
64670;DHT22;51080;51.690;5.174;2023-03-20T00:21:19;9.30;76.70
64670;DHT22;51080;51.690;5.174;2023-03-20T00:27:33;9.20;76.70
64670;DHT22;51080;51.690;5.174;2023-03-20T00:33:46;9.00;78.20
64670;DHT22;51080;51.690;5.174;2023-03-20T00:40:00;9.00;77.80
64670;DHT22;51080;51.690;5.174;2023-03-20T00:46:15;8.70;78.50
64670;DHT22;51080;51.690;5.174;2023-03-20T00:52:29;8.40;78.90
64670;DHT22;51080;51.690;5.174;2023-03-20T00:58:44;8.20;77.80
64670;DHT22;51080;51.690;5.174;2023-03-20T01:04:57;8.30;77.30
64670;DHT22;51080;51.690;5.174;2023-03-20T01:11:20;8.10;77.90
64670;DHT22;51080;51.690;5.174;2023-03-20T01:17:32;7.80;80.20
64670;DHT22;51080;51.690;5.174;2023-03-20T01:23:48;7.70;80.10
64670;DHT22;51080;51.690;5.174;2023-03-20T01:30:13;7.60;79.40
64670;DHT22;51080;51.690;5.174;2023-03-20T01:36:27;7.50;79.10
64670;DHT22;51080;51.690;5.174;2023-03-20T01:42:41;7.50;78.40
64670;DHT22;51080;51.690;5.174;2023-03-20T01:49:00;7.60;77.20
64670;DHT22;51080;51.690;5.174;2023-03-20T01:55:18;7.60;76.70
64670;DHT22;51080;51.690;5.174;2023-03-20T02:01:35;7.70;76.20
64670;DHT22;51080;51.690;5.174;2023-03-20T02:07:58;7.60;76.10
64670;DHT22;51080;51.690;5.174;2023-03-20T02:14:14;7.50;76.90
64670;DHT22;51080;51.690;5.174;2023-03-20T02:20:36;7.40;76.80
64670;DHT22;51080;51.690;5.174;2023-03-20T02:53:39;7.30;76.00
64670;DHT22;51080;51.690;5.174;2023-03-20T03:00:02;7.30;75.90
64670;DHT22;51080;51.690;5.174;2023-03-20T03:06:30;7.30;76.40
64670;DHT22;51080;51.690;5.174;2023-03-20T03:12:47;7.30;76.20
64670;DHT22;51080;51.690;5.174;2023-03-20T03:19:12;7.30;76.00
64670;DHT22;51080;51.690;5.174;2023-03-20T03:25:35;7.30;76.20
64670;DHT22;51080;51.690;5.174;2023-03-20T03:31:51;7.20;76.30
64670;DHT22;51080;51.690;5.174;2023-03-20T03:44:58;7.20;76.10
64670;DHT22;51080;51.690;5.174;2023-03-20T03:51:17;7.20;76.90
64670;DHT22;51080;51.690;5.174;2023-03-20T03:57:41;7.10;76.70
64670;DHT22;51080;51.690;5.174;2023-03-20T04:03:58;7.10;76.20
64670;DHT22;51080;51.690;5.174;2023-03-20T04:10:14;7.10;78.30
64670;DHT22;51080;51.690;5.174;2023-03-20T04:16:28;7.10;78.40
64670;DHT22;51080;51.690;5.174;2023-03-20T04:22:42;7.00;78.40
64670;DHT22;51080;51.690;5.174;2023-03-20T04:28:57;7.00;79.10
64670;DHT22;51080;51.690;5.174;2023-03-20T04:35:10;6.90;80.10
64670;DHT22;51080;51.690;5.174;2023-03-20T04:41:26;7.00;79.20
64670;DHT22;51080;51.690;5.174;2023-03-20T04:47:41;7.10;79.50
64670;DHT22;51080;51.690;5.174;2023-03-20T04:53:56;7.10;79.50
64670;DHT22;51080;51.690;5.174;2023-03-20T05:00:12;7.10;79.40
64670;DHT22;51080;51.690;5.174;2023-03-20T05:06:28;7.10;79.70
64670;DHT22;51080;51.690;5.174;2023-03-20T05:12:43;7.10;79.30
64670;DHT22;51080;51.690;5.174;2023-03-20T05:18:58;7.10;79.60
64670;DHT22;51080;51.690;5.174;2023-03-20T05:25:13;7.10;79.80
64670;DHT22;51080;51.690;5.174;2023-03-20T05:31:27;7.00;80.20
64670;DHT22;51080;51.690;5.174;2023-03-20T05:37:40;7.00;80.60
64670;DHT22;51080;51.690;5.174;2023-03-20T05:43:55;7.10;79.00
64670;DHT22;51080;51.690;5.174;2023-03-20T05:50:16;7.20;79.50
64670;DHT22;51080;51.690;5.174;2023-03-20T05:56:32;7.10;79.90
64670;DHT22;51080;51.690;5.174;2023-03-20T06:02:47;7.20;79.40
64670;DHT22;51080;51.690;5.174;2023-03-20T06:09:05;7.20;79.50
64670;DHT22;51080;51.690;5.174;2023-03-20T06:15:20;7.20;80.40
64670;DHT22;51080;51.690;5.174;2023-03-20T06:21:34;7.20;79.70
64670;DHT22;51080;51.690;5.174;2023-03-20T06:27:49;7.20;79.60
64670;DHT22;51080;51.690;5.174;2023-03-20T06:34:03;7.40;79.40
64670;DHT22;51080;51.690;5.174;2023-03-20T06:40:16;7.50;79.00
64670;DHT22;51080;51.690;5.174;2023-03-20T06:46:30;7.50;79.00
64670;DHT22;51080;51.690;5.174;2023-03-20T06:52:44;7.50;78.80
64670;DHT22;51080;51.690;5.174;2023-03-20T06:58:58;7.50;78.80
64670;DHT22;51080;51.690;5.174;2023-03-20T07:05:14;7.60;78.40
64670;DHT22;51080;51.690;5.174;2023-03-20T07:11:29;7.70;78.20
64670;DHT22;51080;51.690;5.174;2023-03-20T07:17:43;7.80;77.80
64670;DHT22;51080;51.690;5.174;2023-03-20T07:23:57;8.00;77.20
64670;DHT22;51080;51.690;5.174;2023-03-20T07:30:13;8.10;77.00
64670;DHT22;51080;51.690;5.174;2023-03-20T07:36:26;8.00;77.20
64670;DHT22;51080;51.690;5.174;2023-03-20T07:42:41;8.10;76.40
64670;DHT22;51080;51.690;5.174;2023-03-20T07:48:56;8.10;76.30
64670;DHT22;51080;51.690;5.174;2023-03-20T07:55:10;8.10;76.40
64670;DHT22;51080;51.690;5.174;2023-03-20T08:01:24;8.10;76.30
64670;DHT22;51080;51.690;5.174;2023-03-20T08:07:41;8.10;75.90
64670;DHT22;51080;51.690;5.174;2023-03-20T08:13:55;8.10;76.50
64670;DHT22;51080;51.690;5.174;2023-03-20T08:20:11;8.30;76.00
64670;DHT22;51080;51.690;5.174;2023-03-20T08:26:26;8.50;74.30
64670;DHT22;51080;51.690;5.174;2023-03-20T08:32:40;8.50;74.80
64670;DHT22;51080;51.690;5.174;2023-03-20T08:39:04;8.60;74.40
64670;DHT22;51080;51.690;5.174;2023-03-20T08:45:20;8.70;74.10
64670;DHT22;51080;51.690;5.174;2023-03-20T08:51:34;8.80;73.70
64670;DHT22;51080;51.690;5.174;2023-03-20T08:57:49;8.70;75.40
64670;DHT22;51080;51.690;5.174;2023-03-20T09:04:06;8.30;79.30
64670;DHT22;51080;51.690;5.174;2023-03-20T09:10:22;8.30;82.50
64670;DHT22;51080;51.690;5.174;2023-03-20T09:16:37;7.90;82.90
64670;DHT22;51080;51.690;5.174;2023-03-20T09:23:01;7.80;85.90
64670;DHT22;51080;51.690;5.174;2023-03-20T09:29:15;7.80;87.00
64670;DHT22;51080;51.690;5.174;2023-03-20T09:35:28;7.80;85.30
64670;DHT22;51080;51.690;5.174;2023-03-20T09:41:47;7.90;86.80
64670;DHT22;51080;51.690;5.174;2023-03-20T09:48:33;8.10;86.70
64670;DHT22;51080;51.690;5.174;2023-03-20T09:54:51;8.30;86.30
64670;DHT22;51080;51.690;5.174;2023-03-20T10:01:11;8.50;85.40
64670;DHT22;51080;51.690;5.174;2023-03-20T10:07:26;8.50;84.20
64670;DHT22;51080;51.690;5.174;2023-03-20T10:20:37;8.60;84.60
64670;DHT22;51080;51.690;5.174;2023-03-20T10:26:55;8.70;83.80
64670;DHT22;51080;51.690;5.174;2023-03-20T10:40:01;9.20;84.40
64670;DHT22;51080;51.690;5.174;2023-03-20T10:46:20;9.50;83.60
64670;DHT22;51080;51.690;5.174;2023-03-20T10:52:39;9.70;80.30
64670;DHT22;51080;51.690;5.174;2023-03-20T10:59:03;9.70;78.90
64670;DHT22;51080;51.690;5.174;2023-03-20T11:11:47;9.80;78.70
64670;DHT22;51080;51.690;5.174;2023-03-20T11:18:05;9.90;77.90
64670;DHT22;51080;51.690;5.174;2023-03-20T11:24:40;10.20;78.30
64670;DHT22;51080;51.690;5.174;2023-03-20T11:30:59;10.30;76.40
64670;DHT22;51080;51.690;5.174;2023-03-20T11:37:27;10.30;75.80
64670;DHT22;51080;51.690;5.174;2023-03-20T11:43:43;10.60;76.60
64670;DHT22;51080;51.690;5.174;2023-03-20T11:49:59;11.00;74.60
64670;DHT22;51080;51.690;5.174;2023-03-20T11:56:20;11.10;76.10
64670;DHT22;51080;51.690;5.174;2023-03-20T12:02:35;11.00;73.20
64670;DHT22;51080;51.690;5.174;2023-03-20T12:08:56;11.00;73.00
64670;DHT22;51080;51.690;5.174;2023-03-20T12:15:21;10.90;73.80
64670;DHT22;51080;51.690;5.174;2023-03-20T12:21:43;11.00;71.90
64670;DHT22;51080;51.690;5.174;2023-03-20T12:34:41;11.00;73.90
64670;DHT22;51080;51.690;5.174;2023-03-20T12:41:06;11.10;72.60
64670;DHT22;51080;51.690;5.174;2023-03-20T13:00:44;11.00;69.50
64670;DHT22;51080;51.690;5.174;2023-03-20T13:07:09;11.00;69.20
64670;DHT22;51080;51.690;5.174;2023-03-20T13:13:55;11.00;70.10
64670;DHT22;51080;51.690;5.174;2023-03-20T13:20:24;11.00;71.00
64670;DHT22;51080;51.690;5.174;2023-03-20T13:26:51;11.20;70.30
64670;DHT22;51080;51.690;5.174;2023-03-20T13:46:49;11.00;70.00
64670;DHT22;51080;51.690;5.174;2023-03-20T14:13:01;10.10;74.70
64670;DHT22;51080;51.690;5.174;2023-03-20T14:19:19;9.90;80.70
64670;DHT22;51080;51.690;5.174;2023-03-20T14:25:39;9.90;81.10
64670;DHT22;51080;51.690;5.174;2023-03-20T14:38:37;9.70;81.90
64670;DHT22;51080;51.690;5.174;2023-03-20T14:51:40;9.60;80.90
64670;DHT22;51080;51.690;5.174;2023-03-20T14:58:28;9.80;82.00
64670;DHT22;51080;51.690;5.174;2023-03-20T15:04:31;10.00;80.60
64670;DHT22;51080;51.690;5.174;2023-03-20T15:10:54;10.20;78.80
64670;DHT22;51080;51.690;5.174;2023-03-20T15:17:25;10.30;78.10
64670;DHT22;51080;51.690;5.174;2023-03-20T15:23:45;10.40;77.60
64670;DHT22;51080;51.690;5.174;2023-03-20T15:30:00;10.60;76.80
64670;DHT22;51080;51.690;5.174;2023-03-20T15:36:17;10.50;75.80
64670;DHT22;51080;51.690;5.174;2023-03-20T15:42:32;10.60;75.80
64670;DHT22;51080;51.690;5.174;2023-03-20T15:48:48;10.50;76.30
64670;DHT22;51080;51.690;5.174;2023-03-20T15:55:05;10.50;76.70
64670;DHT22;51080;51.690;5.174;2023-03-20T16:01:23;10.30;76.30
64670;DHT22;51080;51.690;5.174;2023-03-20T16:07:39;10.20;75.80
64670;DHT22;51080;51.690;5.174;2023-03-20T16:13:54;10.30;77.00
64670;DHT22;51080;51.690;5.174;2023-03-20T16:20:13;10.40;77.10
64670;DHT22;51080;51.690;5.174;2023-03-20T16:26:28;10.50;76.60
64670;DHT22;51080;51.690;5.174;2023-03-20T16:32:46;10.50;76.50
64670;DHT22;51080;51.690;5.174;2023-03-20T16:39:19;10.50;76.70
64670;DHT22;51080;51.690;5.174;2023-03-20T16:45:36;10.50;75.90
64670;DHT22;51080;51.690;5.174;2023-03-20T16:51:55;10.50;77.00
64670;DHT22;51080;51.690;5.174;2023-03-20T16:58:19;10.50;76.90
64670;DHT22;51080;51.690;5.174;2023-03-20T17:04:35;10.50;76.80
64670;DHT22;51080;51.690;5.174;2023-03-20T17:10:56;10.50;77.40
64670;DHT22;51080;51.690;5.174;2023-03-20T17:17:13;10.60;76.80
64670;DHT22;51080;51.690;5.174;2023-03-20T17:23:28;10.50;77.20
64670;DHT22;51080;51.690;5.174;2023-03-20T17:29:44;10.50;77.70
64670;DHT22;51080;51.690;5.174;2023-03-20T17:35:59;10.50;78.20
64670;DHT22;51080;51.690;5.174;2023-03-20T17:42:18;10.50;77.70
64670;DHT22;51080;51.690;5.174;2023-03-20T17:48:31;10.50;78.70
64670;DHT22;51080;51.690;5.174;2023-03-20T17:54:45;10.50;78.50
64670;DHT22;51080;51.690;5.174;2023-03-20T18:01:01;10.50;78.50
64670;DHT22;51080;51.690;5.174;2023-03-20T18:07:17;10.40;78.20
64670;DHT22;51080;51.690;5.174;2023-03-20T18:13:31;10.50;78.70
64670;DHT22;51080;51.690;5.174;2023-03-20T18:19:46;10.40;78.80
64670;DHT22;51080;51.690;5.174;2023-03-20T18:25:59;10.50;79.10
64670;DHT22;51080;51.690;5.174;2023-03-20T18:32:14;10.50;78.50
64670;DHT22;51080;51.690;5.174;2023-03-20T18:38:29;10.50;79.30
64670;DHT22;51080;51.690;5.174;2023-03-20T18:44:44;10.50;79.60
64670;DHT22;51080;51.690;5.174;2023-03-20T18:50:58;10.50;79.00
64670;DHT22;51080;51.690;5.174;2023-03-20T18:57:16;10.50;79.60
64670;DHT22;51080;51.690;5.174;2023-03-20T19:03:34;10.50;79.10
64670;DHT22;51080;51.690;5.174;2023-03-20T19:09:52;10.50;80.80
64670;DHT22;51080;51.690;5.174;2023-03-20T19:16:18;10.30;83.80
64670;DHT22;51080;51.690;5.174;2023-03-20T19:22:36;10.10;85.30
64670;DHT22;51080;51.690;5.174;2023-03-20T19:28:53;10.00;86.50
64670;DHT22;51080;51.690;5.174;2023-03-20T19:35:09;9.90;87.40
64670;DHT22;51080;51.690;5.174;2023-03-20T19:41:35;9.80;88.40
64670;DHT22;51080;51.690;5.174;2023-03-20T19:47:51;9.80;89.00
64670;DHT22;51080;51.690;5.174;2023-03-20T19:54:05;9.80;89.30
64670;DHT22;51080;51.690;5.174;2023-03-20T20:00:21;9.80;90.00
64670;DHT22;51080;51.690;5.174;2023-03-20T20:06:37;9.70;90.10
64670;DHT22;51080;51.690;5.174;2023-03-20T20:12:52;9.70;90.00
64670;DHT22;51080;51.690;5.174;2023-03-20T20:19:07;9.70;89.80
64670;DHT22;51080;51.690;5.174;2023-03-20T20:25:22;9.70;89.50
64670;DHT22;51080;51.690;5.174;2023-03-20T20:31:37;9.70;89.40
64670;DHT22;51080;51.690;5.174;2023-03-20T20:37:50;9.70;89.90
64670;DHT22;51080;51.690;5.174;2023-03-20T20:44:04;9.70;89.60
64670;DHT22;51080;51.690;5.174;2023-03-20T20:50:22;9.70;89.60
64670;DHT22;51080;51.690;5.174;2023-03-20T20:56:37;9.70;89.30
64670;DHT22;51080;51.690;5.174;2023-03-20T21:02:52;9.70;89.10
64670;DHT22;51080;51.690;5.174;2023-03-20T21:09:07;9.70;89.20
64670;DHT22;51080;51.690;5.174;2023-03-20T21:15:22;9.80;88.40
64670;DHT22;51080;51.690;5.174;2023-03-20T21:21:37;9.80;88.00
64670;DHT22;51080;51.690;5.174;2023-03-20T21:27:51;9.80;87.90
64670;DHT22;51080;51.690;5.174;2023-03-20T21:34:05;9.80;87.70
64670;DHT22;51080;51.690;5.174;2023-03-20T21:40:21;9.80;87.10
64670;DHT22;51080;51.690;5.174;2023-03-20T21:46:36;9.90;86.80
64670;DHT22;51080;51.690;5.174;2023-03-20T21:52:52;9.90;86.60
64670;DHT22;51080;51.690;5.174;2023-03-20T21:59:07;9.90;86.10
64670;DHT22;51080;51.690;5.174;2023-03-20T22:05:23;9.90;85.90
64670;DHT22;51080;51.690;5.174;2023-03-20T22:11:38;10.00;86.40
64670;DHT22;51080;51.690;5.174;2023-03-20T22:17:54;9.90;86.10
64670;DHT22;51080;51.690;5.174;2023-03-20T22:24:09;10.00;86.10
64670;DHT22;51080;51.690;5.174;2023-03-20T22:30:24;10.00;85.90
64670;DHT22;51080;51.690;5.174;2023-03-20T22:36:42;10.00;86.20
64670;DHT22;51080;51.690;5.174;2023-03-20T22:42:57;10.00;86.90
64670;DHT22;51080;51.690;5.174;2023-03-20T22:49:12;10.00;86.80
64670;DHT22;51080;51.690;5.174;2023-03-20T22:55:28;9.90;87.40
64670;DHT22;51080;51.690;5.174;2023-03-20T23:01:46;9.80;88.50
64670;DHT22;51080;51.690;5.174;2023-03-20T23:08:02;9.80;89.00
64670;DHT22;51080;51.690;5.174;2023-03-20T23:14:17;9.70;89.90
64670;DHT22;51080;51.690;5.174;2023-03-20T23:20:34;9.70;89.60
64670;DHT22;51080;51.690;5.174;2023-03-20T23:26:49;9.70;89.60
64670;DHT22;51080;51.690;5.174;2023-03-20T23:33:04;9.60;89.80
64670;DHT22;51080;51.690;5.174;2023-03-20T23:39:19;9.60;89.70
64670;DHT22;51080;51.690;5.174;2023-03-20T23:45:34;9.70;89.40
64670;DHT22;51080;51.690;5.174;2023-03-20T23:51:50;9.70;89.30
64670;DHT22;51080;51.690;5.174;2023-03-20T23:58:08;9.60;88.80
